createdAt,value
2022-09-04T00:04:16.146Z,11.32
2022-09-04T00:09:13.913Z,10.88
2022-09-04T00:14:25.715Z,11.48
2022-09-04T00:19:30.046Z,12.05
2022-09-04T00:24:29.894Z,12.02
2022-09-04T00:29:32.974Z,11.43
2022-09-04T00:34:43.834Z,11.52
2022-09-04T00:39:42.753Z,11.93
2022-09-04T00:45:00.383Z,12.65
2022-09-04T00:50:36.915Z,14.40
2022-09-04T00:56:16.465Z,16.48
2022-09-04T01:01:26.477Z,14.32
2022-09-04T01:06:37.321Z,15.18
2022-09-04T01:11:43.459Z,15.10
2022-09-04T01:16:45.530Z,13.90
2022-09-04T01:22:08.406Z,14.18
2022-09-04T01:27:09.606Z,13.85
2022-09-04T01:32:15.132Z,12.55
2022-09-04T01:37:21.784Z,12.65
2022-09-04T01:42:24.267Z,16.20
2022-09-04T01:47:33.598Z,12.82
2022-09-04T01:52:39.822Z,13.60
2022-09-04T01:58:04.700Z,12.30
2022-09-04T02:03:04.317Z,11.88
2022-09-04T02:08:08.442Z,12.20
2022-09-04T02:13:15.224Z,13.23
2022-09-04T02:18:45.818Z,12.48
2022-09-04T02:23:45.923Z,14.25
2022-09-04T02:33:48.643Z,12.40
2022-09-04T02:38:51.389Z,13.20
2022-09-04T02:43:59.899Z,12.75
2022-09-04T02:49:07.819Z,12.55
2022-09-04T02:54:08.202Z,12.68
2022-09-04T02:59:22.924Z,16.42
2022-09-04T03:04:20.508Z,15.15
2022-09-04T03:09:19.106Z,12.50
2022-09-04T03:14:24.780Z,12.55
2022-09-04T03:19:23.585Z,11.77
2022-09-04T03:24:24.753Z,12.20
2022-09-04T03:34:35.574Z,11.90
2022-09-04T03:39:41.342Z,14.05
2022-09-04T03:44:48.447Z,14.20
2022-09-04T03:50:02.137Z,13.73
2022-09-04T03:55:17.056Z,13.95
2022-09-04T04:00:20.062Z,13.25
2022-09-04T04:05:26.474Z,13.63
2022-09-04T04:10:44.692Z,12.20
2022-09-04T04:16:03.668Z,13.25
2022-09-04T04:21:08.696Z,14.82
2022-09-04T04:26:11.171Z,17.95
2022-09-04T04:31:17.394Z,14.45
2022-09-04T04:36:26.875Z,14.80
2022-09-04T04:42:12.471Z,14.48
2022-09-04T04:47:37.200Z,14.98
2022-09-04T04:52:51.168Z,13.32
2022-09-04T04:58:06.182Z,15.88
2022-09-04T05:03:11.131Z,13.25
2022-09-04T05:08:33.623Z,13.50
2022-09-04T05:13:51.699Z,13.43
2022-09-04T05:19:05.112Z,14.40
2022-09-04T05:24:43.666Z,15.15
2022-09-04T05:29:53.837Z,13.05
2022-09-04T05:35:16.246Z,13.38
2022-09-04T05:40:42.238Z,12.75
2022-09-04T05:46:32.316Z,12.85
2022-09-04T05:51:47.490Z,11.93
2022-09-04T05:57:22.565Z,13.50
2022-09-04T06:03:04.165Z,13.25
2022-09-04T06:13:41.352Z,12.43
2022-09-04T06:19:10.481Z,11.52
2022-09-04T06:24:17.970Z,11.07
2022-09-04T06:29:29.093Z,11.52
2022-09-04T06:34:35.914Z,10.88
2022-09-04T06:39:55.790Z,13.88
2022-09-04T06:45:04.464Z,11.27
2022-09-04T06:50:17.388Z,15.18
2022-09-04T06:55:18.970Z,9.75
2022-09-04T07:00:14.361Z,10.00
2022-09-04T07:05:22.072Z,9.75
2022-09-04T07:10:25.447Z,8.73
2022-09-04T07:16:00.429Z,9.43
2022-09-04T07:21:08.201Z,9.10
2022-09-04T07:26:20.848Z,9.85
2022-09-04T07:31:21.222Z,12.02
2022-09-04T07:36:19.190Z,9.77
2022-09-04T07:41:23.306Z,7.78
2022-09-04T07:46:32.548Z,12.00
2022-09-04T07:51:33.248Z,6.53
2022-09-04T07:56:44.967Z,7.18
2022-09-04T08:02:03.179Z,11.30
2022-09-04T08:07:00.596Z,5.90
2022-09-04T08:12:19.432Z,5.20
2022-09-04T08:17:53.174Z,5.95
2022-09-04T08:23:05.821Z,6.80
2022-09-04T08:28:24.807Z,8.02
2022-09-04T08:33:47.078Z,4.68
2022-09-04T08:38:57.009Z,4.88
2022-09-04T08:44:37.982Z,5.78
2022-09-04T08:50:06.933Z,4.90
2022-09-04T08:55:29.294Z,5.75
2022-09-04T09:00:34.823Z,6.70
2022-09-04T09:05:59.497Z,7.03
2022-09-04T09:11:20.994Z,5.43
2022-09-04T09:16:35.836Z,4.32
2022-09-04T09:21:41.520Z,4.60
2022-09-04T09:26:47.597Z,7.60
2022-09-04T09:32:16.701Z,4.85
2022-09-04T09:37:31.729Z,4.45
2022-09-04T09:43:05.736Z,5.65
2022-09-04T09:48:34.758Z,4.25
2022-09-04T09:53:55.387Z,4.25
2022-09-04T09:59:32.011Z,5.38
2022-09-04T10:04:53.850Z,5.60
2022-09-04T10:10:18.730Z,4.43
2022-09-04T10:15:35.075Z,6.60
2022-09-04T10:21:13.110Z,6.03
2022-09-04T10:26:23.884Z,6.55
2022-09-04T10:32:04.286Z,6.78
2022-09-04T10:37:17.873Z,5.25
2022-09-04T10:42:37.815Z,4.90
2022-09-04T10:48:15.210Z,4.65
2022-09-04T10:53:35.865Z,6.95
2022-09-04T10:58:49.958Z,9.75
2022-09-04T11:04:14.076Z,6.18
2022-09-04T11:09:39.007Z,4.88
2022-09-04T11:14:55.918Z,6.55
2022-09-04T11:20:22.645Z,5.82
2022-09-04T11:25:47.253Z,4.35
2022-09-04T11:31:00.495Z,4.47
2022-09-04T11:36:30.226Z,4.78
2022-09-04T11:42:03.984Z,5.20
2022-09-04T11:47:25.753Z,4.85
2022-09-04T11:52:31.818Z,6.00
2022-09-04T11:57:37.096Z,4.10
2022-09-04T12:03:20.853Z,5.03
2022-09-04T12:09:01.153Z,5.13
2022-09-04T12:14:12.360Z,5.80
2022-09-04T12:19:31.082Z,5.00
2022-09-04T12:25:13.624Z,4.28
2022-09-04T12:30:16.122Z,4.53
2022-09-04T12:35:43.265Z,8.15
2022-09-04T12:40:48.682Z,6.30
2022-09-04T12:45:49.106Z,5.22
2022-09-04T12:50:49.377Z,4.53
2022-09-04T12:55:53.004Z,9.18
2022-09-04T13:01:09.665Z,3.75
2022-09-04T13:06:16.094Z,5.00
2022-09-04T13:11:25.342Z,5.68
2022-09-04T13:16:30.657Z,5.18
2022-09-04T13:21:35.293Z,3.92
2022-09-04T13:26:57.223Z,5.47
2022-09-04T13:32:19.247Z,5.75
2022-09-04T13:37:23.993Z,4.82
2022-09-04T13:42:52.550Z,7.10
2022-09-04T13:47:55.605Z,4.45
2022-09-04T13:52:55.922Z,4.75
2022-09-04T13:57:57.643Z,4.63
2022-09-04T14:03:01.614Z,4.07
2022-09-04T14:08:04.045Z,3.55
2022-09-04T14:13:11.248Z,4.72
2022-09-04T14:18:21.506Z,4.50
2022-09-04T14:23:23.399Z,4.45
2022-09-04T14:28:25.153Z,4.47
2022-09-04T14:33:28.441Z,4.45
2022-09-04T14:38:52.509Z,6.25
2022-09-04T14:44:04.119Z,6.00
2022-09-04T14:49:06.340Z,5.28
2022-09-04T14:54:00.202Z,6.45
2022-09-04T14:59:03.701Z,5.32
2022-09-04T15:04:05.587Z,6.43
2022-09-04T15:09:18.511Z,6.18
2022-09-04T15:14:26.513Z,6.43
2022-09-04T15:19:39.720Z,6.10
2022-09-04T15:24:38.187Z,8.88
2022-09-04T15:29:39.691Z,6.28
2022-09-04T15:34:37.263Z,6.80
2022-09-04T15:39:40.938Z,6.78
2022-09-04T15:44:46.501Z,7.10
2022-09-04T15:49:55.041Z,7.55
2022-09-04T15:55:09.222Z,5.25
2022-09-04T16:00:09.965Z,6.40
2022-09-04T16:05:20.614Z,7.38
2022-09-04T16:15:17.956Z,8.02
2022-09-04T16:20:20.362Z,5.57
2022-09-04T16:25:27.165Z,8.07
2022-09-04T16:30:34.266Z,5.78
2022-09-04T16:35:34.269Z,6.35
2022-09-04T16:40:34.483Z,8.60
2022-09-04T16:45:32.284Z,10.20
2022-09-04T16:50:35.826Z,5.05
2022-09-04T16:55:37.065Z,6.68
2022-09-04T17:01:13.737Z,6.03
2022-09-04T17:06:20.911Z,5.75
2022-09-04T17:11:22.578Z,9.98
2022-09-04T17:16:21.177Z,7.82
2022-09-04T17:26:12.255Z,7.20
2022-09-04T17:29:15.033Z,11.15
2022-09-04T17:40:46.825Z,7.32
2022-09-04T17:43:22.411Z,6.32
2022-09-04T17:48:36.122Z,9.50
2022-09-04T17:53:36.890Z,5.05
2022-09-04T17:58:41.054Z,6.93
2022-09-04T18:03:42.313Z,5.85
2022-09-04T18:09:01.215Z,5.10
2022-09-04T18:14:05.267Z,6.50
2022-09-04T18:19:17.639Z,6.80
2022-09-04T18:24:24.072Z,4.10
2022-09-04T18:31:11.290Z,4.18
2022-09-04T18:37:20.346Z,6.13
2022-09-04T18:40:43.134Z,6.20
2022-09-04T18:50:31.482Z,7.30
2022-09-04T18:51:52.276Z,7.00
2022-09-04T18:56:54.391Z,7.10
2022-09-04T19:01:58.051Z,7.35
2022-09-04T19:07:07.038Z,5.78
2022-09-04T19:12:09.788Z,5.50
2022-09-04T19:17:11.526Z,5.82
2022-09-04T19:22:11.333Z,4.95
2022-09-04T19:27:27.826Z,4.28
2022-09-04T19:32:30.919Z,6.55
2022-09-04T19:40:31.974Z,5.55
2022-09-04T19:46:00.060Z,5.60
2022-09-04T19:48:32.233Z,5.93
2022-09-04T19:53:42.685Z,7.72
2022-09-04T19:58:51.062Z,6.72
2022-09-04T20:03:50.210Z,6.88
2022-09-04T20:08:51.663Z,5.53
2022-09-04T20:13:52.222Z,6.03
2022-09-04T20:18:50.819Z,6.68
2022-09-04T20:23:49.356Z,5.85
2022-09-04T20:28:58.643Z,6.00
2022-09-04T20:33:56.188Z,5.57
2022-09-04T20:38:58.178Z,6.03
2022-09-04T20:44:03.509Z,5.07
2022-09-04T20:52:58.058Z,6.80
2022-09-04T20:54:33.992Z,4.70
2022-09-04T21:04:58.359Z,5.03
2022-09-04T21:10:10.537Z,5.85
2022-09-04T21:15:11.958Z,6.38
2022-09-04T21:20:55.124Z,5.10
2022-09-04T21:26:08.625Z,5.20
2022-09-04T21:31:18.042Z,4.47
2022-09-04T21:36:25.407Z,5.55
2022-09-04T21:41:35.366Z,6.05
2022-09-04T21:46:56.370Z,5.05
2022-09-04T21:52:12.859Z,5.38
2022-09-04T22:02:31.711Z,4.93
2022-09-04T22:03:05.242Z,7.00
2022-09-04T22:11:23.435Z,4.57
2022-09-04T22:13:49.514Z,4.90
2022-09-04T22:19:16.166Z,6.30
2022-09-04T22:24:41.211Z,5.68
2022-09-04T22:29:50.622Z,5.05
2022-09-04T22:35:21.070Z,8.45
2022-09-04T22:40:56.093Z,7.70
2022-09-04T22:46:30.377Z,5.35
2022-09-04T22:51:39.905Z,6.10
2022-09-04T22:56:50.195Z,7.00
2022-09-04T23:02:14.309Z,7.22
2022-09-04T23:11:30.388Z,5.60
2022-09-04T23:13:58.480Z,6.72
2022-09-04T23:23:00.038Z,4.97
2022-09-04T23:26:45.335Z,5.63
2022-09-04T23:30:04.324Z,4.53
2022-09-04T23:35:14.533Z,5.72
2022-09-04T23:40:27.951Z,5.18
2022-09-04T23:45:49.601Z,5.43
2022-09-04T23:51:02.805Z,5.07
2022-09-04T23:56:08.767Z,8.38
